createdAt,value
2024-04-12T00:00:06.306Z,9.89
2024-04-12T00:02:33.936Z,9.90
2024-04-12T00:05:01.454Z,9.80
2024-04-12T00:07:28.825Z,9.78
2024-04-12T00:09:56.794Z,9.93
2024-04-12T00:12:24.272Z,9.84
2024-04-12T00:14:51.712Z,9.86
2024-04-12T00:17:19.112Z,9.84
2024-04-12T00:19:46.481Z,9.84
2024-04-12T00:22:13.853Z,9.81
2024-04-12T00:24:41.230Z,9.77
2024-04-12T00:27:08.624Z,9.74
2024-04-12T00:29:36.078Z,9.82
2024-04-12T00:32:03.467Z,9.80
2024-04-12T00:34:30.837Z,9.77
2024-04-12T00:36:58.191Z,9.75
2024-04-12T00:39:25.548Z,9.76
2024-04-12T00:41:52.988Z,9.73
2024-04-12T00:44:20.374Z,9.60
2024-04-12T00:46:47.738Z,9.49
2024-04-12T00:49:15.113Z,9.50
2024-04-12T00:51:42.492Z,9.64
2024-04-12T00:54:09.885Z,9.71
2024-04-12T00:56:37.341Z,9.75
2024-04-12T00:59:04.756Z,9.65
2024-04-12T01:01:32.155Z,9.63
2024-04-12T01:03:59.595Z,9.56
2024-04-12T01:06:27.056Z,9.48
2024-04-12T01:08:54.535Z,9.35
2024-04-12T01:11:21.958Z,9.27
2024-04-12T01:13:49.353Z,9.01
2024-04-12T01:16:16.717Z,8.86
2024-04-12T01:18:44.246Z,8.84
2024-04-12T01:21:11.987Z,8.63
2024-04-12T01:23:39.526Z,8.56
2024-04-12T01:26:06.911Z,8.40
2024-04-12T01:28:34.268Z,8.51
2024-04-12T01:31:01.622Z,8.58
2024-04-12T01:33:29.075Z,8.53
2024-04-12T01:35:56.520Z,8.48
2024-04-12T01:38:23.915Z,8.54
2024-04-12T01:40:51.296Z,8.64
2024-04-12T01:43:18.675Z,8.76
2024-04-12T01:45:46.053Z,8.92
2024-04-12T01:48:13.585Z,9.01
2024-04-12T01:50:41.032Z,9.02
2024-04-12T01:53:08.419Z,9.06
2024-04-12T01:55:35.790Z,9.19
2024-04-12T01:58:03.154Z,9.21
2024-04-12T02:00:30.535Z,9.19
2024-04-12T02:02:58.039Z,8.90
2024-04-12T02:05:25.427Z,8.95
2024-04-12T02:07:52.798Z,8.83
2024-04-12T02:10:20.194Z,8.81
2024-04-12T02:12:47.569Z,8.71
2024-04-12T02:15:14.941Z,8.81
2024-04-12T02:17:42.491Z,8.78
2024-04-12T02:20:09.938Z,8.82
2024-04-12T02:22:37.287Z,8.75
2024-04-12T02:25:04.648Z,8.52
2024-04-12T02:27:32.014Z,8.55
2024-04-12T02:29:59.394Z,8.60
2024-04-12T02:32:26.850Z,8.51
2024-04-12T02:34:54.227Z,8.47
2024-04-12T02:37:21.642Z,8.61
2024-04-12T02:39:49.072Z,8.72
2024-04-12T02:42:16.446Z,8.69
2024-04-12T02:44:43.829Z,8.72
2024-04-12T02:47:11.225Z,8.67
2024-04-12T02:49:38.595Z,8.67
2024-04-12T02:52:06.023Z,8.74
2024-04-12T02:54:33.414Z,8.77
2024-04-12T02:57:00.999Z,8.78
2024-04-12T02:59:28.384Z,8.83
2024-04-12T03:01:55.805Z,8.85
2024-04-12T03:04:23.214Z,8.77
2024-04-12T03:06:50.604Z,8.68
2024-04-12T03:09:18.061Z,8.80
2024-04-12T03:11:45.516Z,8.77
2024-04-12T03:14:12.949Z,8.79
2024-04-12T03:16:40.453Z,8.57
2024-04-12T03:19:07.958Z,8.54
2024-04-12T03:21:35.322Z,8.56
2024-04-12T03:24:02.746Z,8.55
2024-04-12T03:26:30.123Z,8.50
2024-04-12T03:28:57.498Z,8.54
2024-04-12T03:31:24.870Z,8.55
2024-04-12T03:33:52.237Z,8.50
2024-04-12T03:36:19.606Z,8.49
2024-04-12T03:38:47.069Z,8.56
2024-04-12T03:41:14.477Z,8.54
2024-04-12T03:43:41.834Z,8.55
2024-04-12T03:46:09.202Z,8.45
2024-04-12T03:48:36.669Z,8.47
2024-04-12T03:51:04.195Z,8.46
2024-04-12T03:53:31.592Z,8.39
2024-04-12T03:55:58.971Z,8.41
2024-04-12T03:58:26.347Z,8.48
2024-04-12T04:00:53.726Z,8.53
2024-04-12T04:03:21.141Z,8.47
2024-04-12T04:05:48.561Z,8.49
2024-04-12T04:08:15.994Z,8.52
2024-04-12T04:10:43.408Z,8.55
2024-04-12T04:15:38.264Z,8.51
2024-04-12T04:18:05.783Z,8.42
2024-04-12T04:20:33.309Z,8.38
2024-04-12T04:23:00.692Z,8.33
2024-04-12T04:25:28.060Z,8.29
2024-04-12T04:27:55.420Z,8.29
2024-04-12T04:30:22.784Z,8.22
2024-04-12T04:32:50.215Z,8.26
2024-04-12T04:35:17.616Z,8.31
2024-04-12T04:37:45.000Z,8.27
2024-04-12T04:40:12.386Z,8.34
2024-04-12T04:42:39.748Z,8.29
2024-04-12T04:45:07.167Z,8.17
2024-04-12T04:47:34.798Z,8.20
2024-04-12T04:50:02.264Z,8.10
2024-04-12T04:52:29.641Z,8.10
2024-04-12T04:54:57.039Z,8.06
2024-04-12T04:57:24.434Z,8.02
2024-04-12T04:59:51.832Z,7.94
2024-04-12T05:02:19.230Z,7.96
2024-04-12T05:04:46.603Z,7.91
2024-04-12T05:07:13.982Z,8.03
2024-04-12T05:09:41.365Z,7.91
2024-04-12T05:12:08.866Z,8.02
2024-04-12T05:14:36.360Z,8.09
2024-04-12T05:17:03.780Z,8.11
2024-04-12T05:19:31.188Z,8.15
2024-04-12T05:21:58.565Z,7.98
2024-04-12T05:24:25.925Z,7.92
2024-04-12T05:26:53.379Z,7.97
2024-04-12T05:29:20.755Z,7.99
2024-04-12T05:31:48.116Z,8.05
2024-04-12T05:34:15.477Z,8.27
2024-04-12T05:36:42.889Z,8.41
2024-04-12T05:39:10.338Z,8.55
2024-04-12T05:41:37.748Z,8.78
2024-04-12T05:44:05.132Z,9.01
2024-04-12T05:46:32.490Z,9.00
2024-04-12T05:48:59.852Z,8.89
2024-04-12T05:51:27.258Z,9.14
2024-04-12T05:53:54.695Z,9.21
2024-04-12T05:56:22.495Z,9.19
2024-04-12T05:58:50.071Z,9.38
2024-04-12T06:01:17.449Z,9.41
2024-04-12T06:03:44.929Z,9.44
2024-04-12T06:06:12.370Z,9.36
2024-04-12T06:08:39.779Z,9.33
2024-04-12T06:11:07.160Z,9.36
2024-04-12T06:13:34.542Z,9.34
2024-04-12T06:16:01.912Z,9.17
2024-04-12T06:18:29.297Z,9.25
2024-04-12T06:20:56.760Z,9.29
2024-04-12T06:23:26.834Z,9.34
2024-04-12T06:25:55.819Z,9.26
2024-04-12T06:28:23.203Z,9.27
2024-04-12T06:30:50.654Z,9.17
2024-04-12T06:33:18.088Z,9.12
2024-04-12T06:35:45.550Z,9.15
2024-04-12T06:38:12.988Z,9.29
2024-04-12T06:40:40.357Z,9.28
2024-04-12T06:43:10.258Z,9.28
2024-04-12T06:45:38.595Z,9.29
2024-04-12T06:48:06.059Z,9.40
2024-04-12T06:50:33.508Z,9.40
2024-04-12T06:53:00.897Z,9.48
2024-04-12T06:55:28.286Z,9.56
2024-04-12T06:57:55.674Z,9.56
2024-04-12T07:00:23.064Z,9.72
2024-04-12T07:02:50.515Z,9.80
2024-04-12T07:05:17.930Z,9.74
2024-04-12T07:07:45.320Z,9.86
2024-04-12T07:10:12.676Z,9.78
2024-04-12T07:12:40.036Z,9.91
2024-04-12T07:15:07.413Z,9.98
2024-04-12T07:17:34.949Z,10.09
2024-04-12T07:20:02.395Z,10.15
2024-04-12T07:22:29.775Z,10.31
2024-04-12T07:24:57.668Z,10.53
2024-04-12T07:27:25.102Z,10.63
2024-04-12T07:29:52.521Z,10.65
2024-04-12T07:32:19.956Z,10.76
2024-04-12T07:34:47.340Z,10.89
2024-04-12T07:37:14.792Z,11.07
2024-04-12T07:39:42.214Z,10.91
2024-04-12T07:42:09.722Z,11.03
2024-04-12T07:44:37.175Z,11.08
2024-04-12T07:47:04.660Z,11.02
2024-04-12T07:49:32.118Z,11.10
2024-04-12T07:51:59.662Z,11.29
2024-04-12T07:54:27.142Z,11.29
2024-04-12T07:56:54.547Z,11.42
2024-04-12T07:59:21.925Z,11.46
2024-04-12T08:01:49.307Z,11.42
2024-04-12T08:04:16.768Z,11.53
2024-04-12T08:06:44.159Z,11.70
2024-04-12T08:09:11.547Z,11.81
2024-04-12T08:11:38.997Z,11.87
2024-04-12T08:14:06.366Z,11.90
2024-04-12T08:16:33.812Z,11.91
2024-04-12T08:19:01.317Z,11.90
2024-04-12T08:21:28.887Z,12.08
2024-04-12T08:23:56.398Z,12.20
2024-04-12T08:26:23.789Z,12.15
2024-04-12T08:28:51.159Z,12.19
2024-04-12T08:31:18.544Z,12.27
2024-04-12T08:33:45.974Z,12.41
2024-04-12T08:36:13.495Z,12.53
2024-04-12T08:38:40.962Z,12.52
2024-04-12T08:41:08.366Z,12.66
2024-04-12T08:43:35.732Z,12.73
2024-04-12T08:46:03.105Z,12.73
2024-04-12T08:48:30.593Z,12.76
2024-04-12T08:50:58.074Z,12.86
2024-04-12T08:53:25.492Z,12.93
2024-04-12T08:55:52.885Z,12.99
2024-04-12T08:58:20.259Z,13.06
2024-04-12T09:00:47.676Z,13.11
2024-04-12T09:03:15.151Z,13.26
2024-04-12T09:05:42.643Z,13.35
2024-04-12T09:08:10.168Z,13.39
2024-04-12T09:10:38.015Z,13.49
2024-04-12T09:13:05.563Z,13.54
2024-04-12T09:15:32.994Z,13.58
2024-04-12T09:18:00.547Z,13.78
2024-04-12T09:20:28.053Z,13.80
2024-04-12T09:22:55.447Z,13.93
2024-04-12T09:25:22.839Z,14.00
2024-04-12T09:27:50.254Z,14.07
2024-04-12T09:30:17.782Z,14.04
2024-04-12T09:32:45.408Z,14.26
2024-04-12T09:35:12.851Z,14.35
2024-04-12T09:37:40.601Z,14.46
2024-04-12T09:40:08.093Z,14.54
2024-04-12T09:42:35.465Z,14.60
2024-04-12T09:45:02.955Z,14.61
2024-04-12T09:47:30.456Z,14.68
2024-04-12T09:49:57.880Z,14.76
2024-04-12T09:52:25.262Z,14.87
2024-04-12T09:54:52.742Z,14.97
2024-04-12T09:57:20.196Z,15.02
2024-04-12T09:59:47.747Z,15.07
2024-04-12T10:02:16.244Z,15.11
2024-04-12T10:04:43.788Z,15.14
2024-04-12T10:07:11.189Z,15.25
2024-04-12T10:09:38.588Z,15.38
2024-04-12T10:12:06.100Z,15.59
2024-04-12T10:14:33.573Z,15.57
2024-04-12T10:17:00.974Z,15.59
2024-04-12T10:19:28.399Z,15.56
2024-04-12T10:21:55.797Z,15.73
2024-04-12T10:24:23.176Z,15.53
2024-04-12T10:26:50.565Z,15.75
2024-04-12T10:29:17.948Z,15.85
2024-04-12T10:31:45.334Z,15.86
2024-04-12T10:34:12.745Z,15.97
2024-04-12T10:36:40.341Z,16.19
2024-04-12T10:39:07.928Z,16.08
2024-04-12T10:41:35.331Z,16.07
2024-04-12T10:44:02.710Z,16.11
2024-04-12T10:46:30.116Z,16.13
2024-04-12T10:48:57.584Z,16.33
2024-04-12T10:51:25.031Z,16.53
2024-04-12T10:53:52.506Z,16.50
2024-04-12T10:56:19.946Z,16.41
2024-04-12T10:58:47.336Z,16.57
2024-04-12T11:01:14.909Z,16.52
2024-04-12T11:03:42.396Z,16.55
2024-04-12T11:06:09.881Z,16.65
2024-04-12T11:08:37.322Z,16.76
2024-04-12T11:11:04.765Z,16.90
2024-04-12T11:13:32.290Z,16.93
2024-04-12T11:15:59.707Z,17.00
2024-04-12T11:18:27.168Z,17.04
2024-04-12T11:20:54.631Z,17.03
2024-04-12T11:23:22.005Z,17.04
2024-04-12T11:25:49.386Z,17.14
2024-04-12T11:28:16.772Z,17.22
2024-04-12T11:30:44.163Z,17.38
2024-04-12T11:33:12.179Z,17.48
2024-04-12T11:35:39.646Z,17.53
2024-04-12T11:38:07.043Z,17.59
2024-04-12T11:40:34.423Z,17.67
2024-04-12T11:43:04.638Z,17.76
2024-04-12T11:45:33.183Z,17.86
2024-04-12T11:48:00.887Z,17.86
2024-04-12T11:50:28.597Z,17.93
2024-04-12T11:52:56.384Z,18.05
2024-04-12T11:55:26.069Z,18.11
2024-04-12T11:57:54.922Z,18.16
2024-04-12T12:00:22.348Z,18.12
2024-04-12T12:02:49.764Z,18.16
2024-04-12T12:05:17.208Z,18.23
2024-04-12T12:07:44.623Z,18.35
2024-04-12T12:10:12.013Z,18.35
2024-04-12T12:12:39.682Z,18.44
2024-04-12T12:15:07.218Z,18.51
2024-04-12T12:17:34.672Z,18.50
2024-04-12T12:20:02.090Z,18.59
2024-04-12T12:22:29.494Z,18.61
2024-04-12T12:24:56.888Z,18.74
2024-04-12T12:27:24.278Z,18.82
2024-04-12T12:29:51.680Z,18.84
2024-04-12T12:32:19.102Z,18.96
2024-04-12T12:34:46.537Z,19.04
2024-04-12T12:37:13.958Z,19.12
2024-04-12T12:39:41.348Z,19.20
2024-04-12T12:42:08.746Z,19.30
2024-04-12T12:44:36.163Z,19.24
2024-04-12T12:47:03.592Z,19.29
2024-04-12T12:49:31.000Z,19.51
2024-04-12T12:51:58.370Z,19.60
2024-04-12T12:54:25.764Z,19.59
2024-04-12T12:56:53.395Z,19.70
2024-04-12T12:59:24.778Z,19.81
2024-04-12T13:01:53.055Z,20.14
2024-04-12T13:04:20.502Z,20.08
2024-04-12T13:06:47.915Z,20.02
2024-04-12T13:09:15.421Z,20.15
2024-04-12T13:11:42.944Z,20.00
2024-04-12T13:14:10.340Z,19.92
2024-04-12T13:16:37.730Z,19.81
2024-04-12T13:19:05.354Z,19.92
2024-04-12T13:21:32.877Z,20.00
2024-04-12T13:24:00.281Z,20.07
2024-04-12T13:26:27.700Z,20.17
2024-04-12T13:28:55.118Z,20.19
2024-04-12T13:31:22.544Z,20.04
2024-04-12T13:33:49.982Z,20.21
2024-04-12T13:36:17.403Z,20.17
2024-04-12T13:38:44.828Z,20.12
2024-04-12T13:41:12.264Z,20.25
2024-04-12T13:43:39.655Z,20.38
2024-04-12T13:46:07.047Z,20.43
2024-04-12T13:48:34.496Z,20.52
2024-04-12T13:51:01.989Z,20.61
2024-04-12T13:53:29.406Z,20.55
2024-04-12T13:55:56.804Z,20.64
2024-04-12T13:58:24.196Z,20.54
2024-04-12T14:00:51.599Z,20.66
2024-04-12T14:03:21.055Z,20.74
2024-04-12T14:05:48.648Z,20.82
2024-04-12T14:08:16.038Z,20.82
2024-04-12T14:10:43.412Z,20.88
2024-04-12T14:13:10.789Z,20.91
2024-04-12T14:15:38.210Z,20.93
2024-04-12T14:18:05.737Z,20.89
2024-04-12T14:20:33.187Z,20.96
2024-04-12T14:23:00.577Z,20.96
2024-04-12T14:25:28.133Z,20.88
2024-04-12T14:27:55.546Z,20.74
2024-04-12T14:30:23.095Z,20.63
2024-04-12T14:32:50.660Z,20.63
2024-04-12T14:35:18.063Z,20.56
2024-04-12T14:37:45.523Z,20.63
2024-04-12T14:40:13.046Z,20.69
2024-04-12T14:42:40.457Z,20.61
2024-04-12T14:45:08.129Z,20.69
2024-04-12T14:47:35.711Z,20.72
2024-04-12T14:50:03.110Z,20.72
2024-04-12T14:52:30.517Z,20.67
2024-04-12T14:54:57.908Z,20.69
2024-04-12T14:57:25.411Z,20.75
2024-04-12T14:59:52.914Z,20.88
2024-04-12T15:02:20.330Z,21.12
2024-04-12T15:04:47.720Z,21.40
2024-04-12T15:07:15.105Z,21.64
2024-04-12T15:09:42.488Z,21.77
2024-04-12T15:12:09.900Z,21.80
2024-04-12T15:14:39.973Z,21.77
2024-04-12T15:17:07.673Z,21.86
2024-04-12T15:19:35.096Z,21.92
2024-04-12T15:22:02.478Z,22.14
2024-04-12T15:24:29.864Z,22.25
2024-04-12T15:26:57.255Z,22.52
2024-04-12T15:29:24.670Z,22.65
2024-04-12T15:31:52.042Z,22.47
2024-04-12T15:34:19.647Z,22.33
2024-04-12T15:36:47.155Z,22.26
2024-04-12T15:39:14.618Z,22.30
2024-04-12T15:41:42.076Z,22.46
2024-04-12T15:44:09.493Z,22.59
2024-04-12T15:46:36.929Z,22.59
2024-04-12T15:49:04.348Z,22.58
2024-04-12T15:51:31.723Z,22.32
2024-04-12T15:53:59.121Z,22.32
2024-04-12T15:56:26.515Z,22.15
2024-04-12T15:58:53.894Z,22.11
2024-04-12T16:01:21.329Z,22.10
2024-04-12T16:03:48.803Z,22.12
2024-04-12T16:06:16.258Z,22.18
2024-04-12T16:08:43.745Z,22.16
2024-04-12T16:11:11.193Z,22.22
2024-04-12T16:13:38.607Z,22.12
2024-04-12T16:16:05.996Z,22.13
2024-04-12T16:18:33.678Z,22.08
2024-04-12T16:21:01.207Z,21.90
2024-04-12T16:23:28.811Z,21.83
2024-04-12T16:26:03.256Z,21.85
2024-04-12T16:28:32.199Z,21.66
2024-04-12T16:31:01.461Z,21.68
2024-04-12T16:33:30.908Z,21.74
2024-04-12T16:35:58.372Z,21.82
2024-04-12T16:38:25.766Z,21.99
2024-04-12T16:40:53.155Z,22.28
2024-04-12T16:43:20.543Z,22.19
2024-04-12T16:45:47.944Z,22.22
2024-04-12T16:48:15.734Z,22.19
2024-04-12T16:50:43.210Z,22.02
2024-04-12T16:53:10.604Z,21.95
2024-04-12T16:55:38.001Z,21.75
2024-04-12T16:58:05.410Z,21.67
2024-04-12T17:00:33.004Z,21.69
2024-04-12T17:03:00.636Z,21.94
2024-04-12T17:05:28.105Z,22.01
2024-04-12T17:07:55.496Z,22.09
2024-04-12T17:10:22.977Z,22.04
2024-04-12T17:12:50.381Z,22.08
2024-04-12T17:15:17.851Z,22.11
2024-04-12T17:17:45.425Z,22.06
2024-04-12T17:20:12.856Z,21.98
2024-04-12T17:22:40.282Z,21.97
2024-04-12T17:25:07.681Z,21.88
2024-04-12T17:27:35.094Z,21.87
2024-04-12T17:30:02.537Z,21.95
2024-04-12T17:32:29.934Z,21.88
2024-04-12T17:34:57.322Z,21.80
2024-04-12T17:37:24.714Z,21.78
2024-04-12T17:39:52.101Z,21.41
2024-04-12T17:42:19.509Z,21.35
2024-04-12T17:44:46.963Z,21.21
2024-04-12T17:47:14.415Z,21.05
2024-04-12T17:49:41.823Z,21.05
2024-04-12T17:52:09.224Z,21.01
2024-04-12T17:54:36.638Z,20.85
2024-04-12T17:57:04.122Z,20.68
2024-04-12T17:59:31.533Z,20.51
2024-04-12T18:01:58.947Z,20.28
2024-04-12T18:04:26.345Z,20.11
2024-04-12T18:06:53.765Z,19.93
2024-04-12T18:09:21.263Z,19.89
2024-04-12T18:11:48.771Z,19.83
2024-04-12T18:14:16.175Z,19.66
2024-04-12T18:16:43.622Z,19.57
2024-04-12T18:19:11.086Z,19.45
2024-04-12T18:21:38.476Z,19.12
2024-04-12T18:24:05.924Z,18.92
2024-04-12T18:26:33.419Z,18.61
2024-04-12T18:29:00.802Z,18.33
2024-04-12T18:31:28.175Z,18.34
2024-04-12T18:33:55.637Z,18.25
2024-04-12T18:36:23.386Z,17.74
2024-04-12T18:38:50.850Z,17.82
2024-04-12T18:41:18.203Z,17.80
2024-04-12T18:43:45.597Z,17.82
2024-04-12T18:46:12.969Z,17.75
2024-04-12T18:48:40.528Z,17.64
2024-04-12T18:51:08.025Z,17.50
2024-04-12T18:53:35.451Z,17.30
2024-04-12T18:56:02.817Z,17.21
2024-04-12T18:58:30.191Z,17.26
2024-04-12T19:00:57.588Z,17.30
2024-04-12T19:03:25.066Z,17.16
2024-04-12T19:05:52.456Z,17.11
2024-04-12T19:08:19.824Z,17.06
2024-04-12T19:10:47.247Z,17.07
2024-04-12T19:13:16.818Z,17.00
2024-04-12T19:15:44.300Z,16.73
2024-04-12T19:18:11.834Z,16.85
2024-04-12T19:20:39.271Z,16.93
2024-04-12T19:23:06.642Z,16.93
2024-04-12T19:25:34.011Z,16.80
2024-04-12T19:28:01.392Z,16.81
2024-04-12T19:30:28.853Z,16.70
2024-04-12T19:32:56.531Z,16.65
2024-04-12T19:35:23.998Z,16.75
2024-04-12T19:37:51.370Z,16.70
2024-04-12T19:40:18.741Z,16.70
2024-04-12T19:42:46.106Z,16.76
2024-04-12T19:45:13.574Z,16.73
2024-04-12T19:47:41.012Z,16.84
2024-04-12T19:50:08.427Z,16.76
2024-04-12T19:52:37.434Z,16.69
2024-04-12T19:55:06.008Z,16.63
2024-04-12T19:57:33.501Z,16.64
2024-04-12T20:00:00.920Z,16.63
2024-04-12T20:02:28.337Z,16.59
2024-04-12T20:04:55.711Z,16.61
2024-04-12T20:07:23.109Z,16.54
2024-04-12T20:09:50.505Z,16.52
2024-04-12T20:12:17.891Z,16.53
2024-04-12T20:14:49.843Z,16.46
2024-04-12T20:17:19.281Z,16.41
2024-04-12T20:19:46.668Z,16.38
2024-04-12T20:22:14.055Z,16.38
2024-04-12T20:24:41.416Z,16.31
2024-04-12T20:27:08.865Z,16.30
2024-04-12T20:29:36.289Z,16.32
2024-04-12T20:32:03.735Z,16.34
2024-04-12T20:34:31.146Z,16.31
2024-04-12T20:36:58.536Z,16.31
2024-04-12T20:39:25.944Z,16.24
2024-04-12T20:41:53.402Z,16.09
2024-04-12T20:44:21.016Z,16.08
2024-04-12T20:46:48.517Z,16.01
2024-04-12T20:49:15.925Z,15.97
2024-04-12T20:51:43.325Z,15.84
2024-04-12T20:54:10.711Z,15.75
2024-04-12T20:56:38.117Z,15.72
2024-04-12T20:59:05.504Z,15.70
2024-04-12T21:01:32.865Z,15.71
2024-04-12T21:04:00.325Z,15.77
2024-04-12T21:06:27.778Z,15.80
2024-04-12T21:08:55.229Z,15.74
2024-04-12T21:11:26.668Z,15.77
2024-04-12T21:13:54.837Z,15.76
2024-04-12T21:16:22.439Z,15.73
2024-04-12T21:18:49.962Z,15.65
2024-04-12T21:21:17.388Z,15.33
2024-04-12T21:23:44.844Z,15.21
2024-04-12T21:26:12.210Z,15.22
2024-04-12T21:28:42.229Z,15.25
2024-04-12T21:31:10.171Z,15.04
2024-04-12T21:33:37.818Z,15.13
2024-04-12T21:36:05.451Z,15.14
2024-04-12T21:38:32.863Z,15.03
2024-04-12T21:41:00.229Z,14.90
2024-04-12T21:43:27.600Z,14.84
2024-04-12T21:45:54.955Z,14.96
2024-04-12T21:48:22.437Z,14.97
2024-04-12T21:50:49.866Z,15.05
2024-04-12T21:53:17.234Z,15.15
2024-04-12T21:55:44.598Z,15.17
2024-04-12T21:58:11.974Z,15.17
2024-04-12T22:00:39.409Z,15.15
2024-04-12T22:03:06.936Z,15.18
2024-04-12T22:05:34.311Z,14.99
2024-04-12T22:08:01.683Z,15.01
2024-04-12T22:10:29.092Z,15.02
2024-04-12T22:12:56.482Z,15.01
2024-04-12T22:15:23.932Z,15.02
2024-04-12T22:17:51.388Z,15.01
2024-04-12T22:20:18.776Z,15.02
2024-04-12T22:22:46.154Z,14.98
2024-04-12T22:25:13.527Z,15.00
2024-04-12T22:27:40.916Z,14.97
2024-04-12T22:30:08.408Z,14.97
2024-04-12T22:32:35.844Z,14.83
2024-04-12T22:35:03.338Z,14.76
2024-04-12T22:37:30.704Z,14.73
2024-04-12T22:39:58.109Z,14.71
2024-04-12T22:42:25.548Z,14.58
2024-04-12T22:44:52.942Z,14.55
2024-04-12T22:47:20.332Z,14.63
2024-04-12T22:49:47.696Z,14.62
2024-04-12T22:52:15.068Z,14.48
2024-04-12T22:54:42.431Z,14.51
2024-04-12T22:57:09.803Z,14.39
2024-04-12T22:59:37.166Z,14.36
2024-04-12T23:02:04.557Z,14.36
2024-04-12T23:04:32.085Z,14.38
2024-04-12T23:06:59.478Z,14.38
2024-04-12T23:09:26.924Z,14.33
2024-04-12T23:11:54.350Z,14.34
2024-04-12T23:14:21.724Z,14.26
2024-04-12T23:16:49.135Z,14.07
2024-04-12T23:19:16.512Z,14.03
2024-04-12T23:21:43.893Z,13.97
2024-04-12T23:24:11.318Z,13.93
2024-04-12T23:26:38.745Z,13.93
2024-04-12T23:29:06.140Z,13.97
2024-04-12T23:31:33.561Z,14.01
2024-04-12T23:34:00.964Z,13.89
2024-04-12T23:36:28.434Z,13.76
2024-04-12T23:38:55.864Z,13.75
2024-04-12T23:41:23.279Z,13.80
2024-04-12T23:43:50.653Z,13.74
2024-04-12T23:46:18.035Z,13.48
2024-04-12T23:48:45.534Z,13.50
2024-04-12T23:51:13.023Z,13.38
2024-04-12T23:53:40.426Z,13.32
2024-04-12T23:56:07.806Z,13.23
2024-04-12T23:58:35.180Z,13.12
